This is the latest recevied weather packets stored in our database for station/object KI4NG. If no packets are shown the sender has not sent any weather packets the latest 10 day(s).
| Time | Temp. | Humidity | Pressure | Rain* | Wind** | Luminosity | Snow |
|---|---|---|---|---|---|---|---|
| 1788105414 | 26.67° C | 79% | 1024.4 hPa | 0 mm | - | 183 W/m² | - |
| 1788105109 | 27.22° C | 79% | 1024.8 hPa | 0 mm | - | 229 W/m² | - |
| 1788104805 | 27.22° C | 79% | 1024.5 hPa | 0 mm | - | 791 W/m² | - |
| 1788104500 | 26.67° C | 82% | 1024.4 hPa | 0 mm | - | 754 W/m² | - |
| 1788104197 | 26.67° C | 81% | 1024.3 hPa | 0 mm | - | 164 W/m² | - |
| 1788103897 | 27.22° C | 80% | 1024.5 hPa | 0 mm | - | 186 W/m² | - |
| 1788103595 | 27.22° C | 80% | 1024.3 hPa | 0 mm | - | 791 W/m² | - |
| 1788103295 | 27.22° C | 82% | 1024.4 hPa | 0 mm | - | 635 W/m² | - |
| 1788103000 | 27.22° C | 81% | 1024.4 hPa | 0 mm | - | 651 W/m² | - |
| 1788102690 | 27.22° C | 79% | 1024.4 hPa | 0 mm | - | 425 W/m² | - |
| 1788102385 | 27.78° C | 81% | 1024.5 hPa | 0 mm | - | 655 W/m² | - |
| 1788102080 | 26.67° C | 82% | 1024.3 hPa | 0 mm | - | 645 W/m² | - |
| 1788101779 | 26.11° C | 85% | 1024.1 hPa | 0 mm | - | 188 W/m² | - |
| 1788101474 | 26.11° C | 84% | 1024.2 hPa | 0 mm | - | 471 W/m² | - |
| 1788101170 | 26.67° C | 83% | 1024.3 hPa | 0 mm | - | 641 W/m² | - |
| 1788100865 | 26.11° C | 84% | 1024.2 hPa | 0 mm | - | 180 W/m² | - |
| 1788100561 | 26.11° C | 84% | 1024.3 hPa | 0 mm | - | 486 W/m² | - |
| 1788100259 | 26.11° C | 84% | 1024.1 hPa | 0 mm | - | 163 W/m² | - |
| 1788099955 | 26.11° C | 84% | 1024.2 hPa | 0 mm | - | 529 W/m² | - |
| 1788099649 | 26.11° C | 87% | 1024.3 hPa | 0 mm | - | 486 W/m² | - |
| 1788099344 | 26.11° C | 85% | 1024.4 hPa | 0 mm | - | 460 W/m² | - |
| 1788099039 | 25.56° C | 87% | 1024.3 hPa | 0 mm | - | 423 W/m² | - |
| 1788098734 | 25.56° C | 87% | 1023.9 hPa | 0 mm | - | 408 W/m² | - |
| 1788098430 | 25.56° C | 87% | 1024.1 hPa | 0 mm | - | 376 W/m² | - |
| 1788098124 | 25.56° C | 87% | 1024.1 hPa | 0 mm | - | 98 W/m² | - |
* Rain latest hour (hover to see other rain measurements)
** Current wind speed in m/s (hover to see current wind gust speed)